• Join FlightAware (Why Join?)
  • Login
  • US Flag 
05:39AM EDT


 

Airport Tracker/Info


-or-


 

Live Flight TrackerFlight Track Log ✈ DAL2028 ✈ 08-Jun-2013 ✈ KMCO - KDTW

Flight Track Log - Related Links

Times and Time Zones

All times are in EDT time to prevent confusion due to time zone crossing. See the DAL2028 flight status page for this flight to view local times or setup timezone preferences in your user account.

Time Position Orientation Groundspeed Altitude Reporting Facility
EDT Latitude Longitude Course Direction KTS MPH feet Rate Location/Type
04:01PM 28.4167 -81.3000 350° North 184 212 500  Level Orlando TRACON
04:02PM 28.3667 -81.2667 150° Southeast 200 230 3,000 2,640 Climbing Orlando TRACON
04:03PM 28.3333 -81.1833 114° Southeast 274 315 6,400 2,880 Climbing Orlando TRACON
04:04PM 28.7703 -81.3457 353° North  Level FlightAware Approximate
04:04PM 28.3333 -81.1000 90° East 286 329 9,100  Level Orlando TRACON
04:05PM 28.8888 -81.3611 350° North  Level FlightAware Approximate
04:05PM 28.3756 -80.9675 70° East 376 433 12,500  Level Jacksonville Center
04:06PM 29.0078 -81.3682 350° North  Level FlightAware Approximate
04:06PM 28.4167 -80.9500 21° North 376 433 13,900  Level Orlando TRACON
04:07PM 28.5167 -80.9833 344° North 387 445 15,800 1,080 Climbing Orlando TRACON
04:08PM 28.6167 -80.9833 360° North 401 461 16,000 60 Climbing Orlando TRACON
04:09PM 28.7922 -81.0614 339° North 420 483 16,100 840 Climbing Jacksonville Center
04:10PM 28.8931 -81.1117 336° Northwest 404 465 18,300 2,340 Climbing Jacksonville Center
04:11PM 29.0042 -81.1500 343° North 399 459 20,800 2,220 Climbing Jacksonville Center
04:12PM 29.1194 -81.1836 346° North 420 483 22,800 1,020 Climbing Jacksonville Center
04:13PM 29.2306 -81.2317 339° North 426 490 22,900 480 Climbing Jacksonville Center
04:14PM 29.3358 -81.3014 330° Northwest 431 496 23,800 1,020 Climbing Jacksonville Center
04:15PM 29.4475 -81.3733 331° Northwest 453 521 25,000 600 Climbing Jacksonville Center
04:16PM 29.5525 -81.4314 334° Northwest 459 528 25,000  Level Jacksonville Center
04:17PM 29.6800 -81.4536 351° North 447 514 25,100 660 Climbing Jacksonville Center
04:18PM 29.8078 -81.4828 349° North 452 520 26,400 1,260 Climbing Jacksonville Center
04:19PM 29.9397 -81.5094 350° North 465 535 27,700 1,200 Climbing Jacksonville Center
04:20PM 30.0756 -81.5389 349° North 483 556 28,800 600 Climbing Jacksonville Center
04:21PM 30.2158 -81.5681 350° North 495 570 29,000 60 Climbing Jacksonville Center
04:22PM 30.3586 -81.6383 337° Northwest 501 577 29,000 600 Level Jacksonville Center
04:23PM 30.4906 -81.7017 338° Northwest 506 582 30,300 1,500 Climbing Jacksonville Center
04:24PM 30.6308 -81.7314 350° North 506 582 32,100 1,740 Climbing Jacksonville Center
04:25PM 30.7689 -81.7539 352° North 506 582 33,800 1,440 Climbing Jacksonville Center
04:26PM 30.9108 -81.7714 354° North 506 582 35,000 600 Climbing Jacksonville Center
04:27PM 31.0469 -81.7917 353° North 500 575 35,000  Level Jacksonville Center
04:28PM 31.1847 -81.8094 354° North 495 570 35,000  Level Jacksonville Center
04:29PM 31.3228 -81.8297 353° North 500 575 35,000 180 Level Jacksonville Center
04:30PM 31.4606 -81.8428 355° North 500 575 35,400 960 Climbing Jacksonville Center
04:31PM 31.5819 -81.8608 353° North 500 575 37,000 780 Climbing Jacksonville Center
04:32PM 31.7261 -81.8814 353° North 481 554 37,000  Level Jacksonville Center
04:33PM 31.8453 -81.8972 354° North 481 554 37,000  Level Jacksonville Center
04:34PM 31.9917 -81.9175 353° North 479 551 37,000  Level Jacksonville Center
04:36PM 32.2194 -81.9497 353° North 491 565 37,000  Level Atlanta Center
04:37PM 32.3658 -81.9708 353° North 483 556 37,000  Level Atlanta Center
04:38PM 32.5017 -81.9872 354° North 483 556 37,000  Level Atlanta Center
04:39PM 32.6378 -82.0089 352° North 483 556 37,000  Level Atlanta Center
04:40PM 32.7781 -82.0278 354° North 488 562 37,000  Level Atlanta Center
04:41PM 32.9181 -82.0467 354° North 495 570 37,000  Level Atlanta Center
04:42PM 33.0561 -82.0683 353° North 502 578 37,000  Level Atlanta Center
04:43PM 33.1942 -82.0878 353° North 502 578 37,000  Level Atlanta Center
04:44PM 33.3344 -82.1069 353° North 502 578 37,000  Level Atlanta Center
04:45PM 33.4706 -82.1264 353° North 502 578 37,000  Level Atlanta Center
04:46PM 33.5939 -82.1411 354° North 502 578 37,000  Level Atlanta Center
04:47PM 33.7339 -82.1503 357° North 502 578 37,000  Level Atlanta Center
04:48PM 33.8733 -82.1322 North 497 572 37,000  Level Atlanta Center
04:49PM 34.0128 -82.1067 North 497 572 37,000  Level Atlanta Center
04:50PM 34.1544 -82.0833 North 502 578 37,000  Level Atlanta Center
04:51PM 34.2939 -82.0575 North 502 578 37,000  Level Atlanta Center
04:52PM 34.4311 -82.0317 North 502 578 37,000  Level Atlanta Center
04:53PM 34.5872 -82.0053 North 502 578 37,000  Level Atlanta Center
04:54PM 34.7286 -81.9814 North 507 583 37,000  Level Atlanta Center
04:55PM 34.8661 -81.9578 North 502 578 37,000  Level Atlanta Center
04:56PM 34.9950 -81.9369 North 502 578 37,000  Level Atlanta Center
04:57PM 35.1347 -81.9333 North 502 578 37,000  Level Atlanta Center
04:58PM 35.2747 -81.9375 359° North 497 572 37,000  Level Atlanta Center
04:59PM 35.4125 -81.9414 359° North 497 572 37,000  Level Atlanta Center
05:00PM 35.5669 -81.9453 359° North 497 572 37,000  Level Atlanta Center
05:01PM 35.7047 -81.9494 359° North 497 572 37,000  Level Atlanta Center
05:02PM 35.8422 -81.9508 360° North 492 566 37,000  Level Atlanta Center
05:03PM 35.9800 -81.9578 358° North 492 566 37,000  Level Atlanta Center
05:04PM 36.1178 -81.9567 360° North 498 573 37,000  Level Atlanta Center
05:07PM 36.4144 -81.9633 359° North 500 575 37,000  Level Indianapolis Center
05:08PM 36.5539 -81.9667 359° North 502 578 37,000  Level Indianapolis Center
05:09PM 36.7122 -81.9714 359° North 491 565 37,000  Level Indianapolis Center
05:10PM 36.8489 -81.9742 359° North 493 567 37,000  Level Indianapolis Center
05:11PM 36.9850 -81.9778 359° North 492 566 37,000  Level Indianapolis Center
05:12PM 37.1197 -81.9811 359° North 487 560 37,000  Level Indianapolis Center
05:13PM 37.2522 -81.9844 359° North 480 552 37,000  Level Indianapolis Center
05:14PM 37.3867 -81.9883 359° North 482 555 37,000  Level Indianapolis Center
05:15PM 37.5431 -81.9919 359° North 480 552 37,000  Level Indianapolis Center
05:16PM 37.6756 -81.9975 358° North 478 550 37,000  Level Indianapolis Center
05:17PM 37.8075 -82.0006 359° North 472 543 37,000  Level Indianapolis Center
05:18PM 37.9456 -82.0047 359° North 478 550 37,000  Level Indianapolis Center
05:19PM 38.0792 -82.0081 359° North 478 550 37,000  Level Indianapolis Center
05:20PM 38.2119 -82.0119 359° North 475 547 37,000  Level Indianapolis Center
05:21PM 38.3475 -82.0133 360° North 480 552 37,000  Level Indianapolis Center
05:22PM 38.4797 -82.0181 358° North 472 543 37,000  Level Indianapolis Center
05:23PM 38.6097 -82.0231 358° North 463 533 37,000  Level Indianapolis Center
05:24PM 38.7425 -82.0281 358° North 470 541 37,000  Level Indianapolis Center
05:25PM 38.8733 -82.0456 354° North 469 540 37,000  Level Indianapolis Center
05:26PM 39.0028 -82.0672 353° North 466 536 37,000  Level Indianapolis Center
05:27PM 39.1325 -82.0886 353° North 466 536 37,000  Level Indianapolis Center
05:28PM 39.2892 -82.1119 353° North 469 540 37,000 -360 Level Indianapolis Center
05:29PM 39.4169 -82.1308 353° North 462 532 36,300 -600 Descending Indianapolis Center
05:30PM 39.5342 -82.1503 353° North 451 519 35,800 -840 Descending Indianapolis Center
05:31PM 39.6544 -82.1692 353° North 435 501 34,600 -1,140 Descending Indianapolis Center
05:32PM 39.7789 -82.1894 353° North 445 512 33,500 -1,080 Descending Indianapolis Center
05:33PM 39.9025 -82.2094 353° North 445 512 32,400 -1,020 Descending Indianapolis Center
05:34PM 40.0453 -82.2322 353° North 441 507 31,500 -1,140 Descending Indianapolis Center
05:35PM 40.1669 -82.2519 353° North 438 504 30,100 -780 Descending Indianapolis Center
05:36PM 40.2828 -82.2711 353° North 445 512 30,000 -60 Descending Indianapolis Center
05:37PM 40.4094 -82.2925 353° North 452 520 30,000  Level Indianapolis Center
05:38PM 40.5347 -82.3158 352° North 448 516 30,000  Level Indianapolis Center
05:39PM 40.6575 -82.3508 348° North 445 512 30,000 -180 Level Indianapolis Center
05:40PM 40.8003 -82.3936 347° North 445 512 29,700 -900 Descending Indianapolis Center
05:41PM 40.9178 -82.4278 348° North 430 495 28,200 -1,980 Descending Indianapolis Center
05:42PM 41.0306 -82.4628 347° North 414 476 25,700 -2,100 Descending Indianapolis Center
05:43PM 41.1442 -82.4953 348° North 412 474 24,000 -840 Descending Indianapolis Center
05:44PM 41.2525 -82.5342 345° North 401 461 24,000 -840 Level Indianapolis Center
05:46PM 41.3358 -82.6203 322° Northwest 376 433 22,300 -1,800 Descending Indianapolis Center
05:47PM 41.4100 -82.7081 318° Northwest 357 411 20,400 -1,920 Descending Indianapolis Center
05:48PM 41.4792 -82.7881 319° Northwest 332 382 18,400 -1,980 Descending Indianapolis Center
05:49PM 41.5533 -82.8750 319° Northwest 324 373 16,500 -1,800 Descending Cleveland Center
05:50PM 41.6164 -82.9525 317° Northwest 326 375 14,700 -1,800 Descending Cleveland Center
05:51PM 41.6817 -83.0297 319° Northwest 321 369 12,800 -1,380 Descending Cleveland Center
05:52PM 41.7531 -83.0939 326° Northwest 321 369 12,000 -420 Descending Cleveland Center
05:53PM 41.8331 -83.1556 330° Northwest 321 369 12,000  Level Cleveland Center
05:54PM 41.9069 -83.2114 331° Northwest 315 362 12,000  Level Cleveland Center
05:55PM 41.9786 -83.2675 330° Northwest 290 334 12,000 -240 Level Cleveland Center
05:56PM 42.0450 -83.2842 349° North 253 291 11,600 -540 Descending Cleveland Center
05:57PM 42.1136 -83.2817 North 239 275 11,000 -660 Descending Cleveland Center
05:58PM 42.1772 -83.2394 26° Northeast 239 275 10,300 -1,080 Descending Cleveland Center
05:59PM 42.2492 -83.1919 26° Northeast 227 261 8,700 -1,380 Descending Cleveland Center
06:00PM 42.3044 -83.1492 30° Northeast 219 252 7,400 -1,080 Descending Cleveland Center
06:01PM 42.3553 -83.1064 32° Northeast 214 246 6,600 -1,020 Descending Cleveland Center
06:02PM 42.3922 -83.1361 329° Northwest 188 216 5,500 -1,380 Descending Cleveland Center
06:03PM 42.3594 -83.1992 235° Southwest 205 236 4,000 -1,200 Descending Cleveland Center
06:04PM 42.3228 -83.2622 232° Southwest 182 209 3,000 -900 Descending Cleveland Center